Marsum, Netherlands
Current Conditions -  °F | °C
As of 6:55 AM on Friday 28 Nov 2014 (Local Time) from EHLW Reporting Station
Haze Haze  
Wind Chill: 29°   Ceiling: Unl
Heat Index: 37°   Visibility: 4mi
Dew Point: 34°   Wind: 14mph
Humidity: 87%   Direction: 110°ESE
Pressure: 29.8"   Gusts: NA
Location:  53.21°N, 5.73°E
Report Text: EHLW 280555Z AUTO 11012KT 6000 BR SCT078 03/01 Q1009 WHT
Loading
Personal Weather Stations






























Interactive Weather Map New forecast layout! Learn more

10-Day Weather Forecast

Advertisements
Track Severe Weather on mobile